createdAt,value
2019-01-27T00:00:07.614Z,1.2
2019-01-27T00:01:07.501Z,1.1
2019-01-27T00:02:07.417Z,1.2
2019-01-27T00:03:07.334Z,1.2
2019-01-27T00:04:07.245Z,1.3
2019-01-27T00:05:07.133Z,1.3
2019-01-27T00:06:07.027Z,1.4
2019-01-27T00:08:13.228Z,1.5
2019-01-27T00:09:14.145Z,1.5
2019-01-27T00:10:14.031Z,1.5
2019-01-27T00:11:13.942Z,1.5
2019-01-27T00:12:13.825Z,1.5
2019-01-27T00:13:13.731Z,1.5
2019-01-27T00:14:13.618Z,1.4
2019-01-27T00:15:13.519Z,1.4
2019-01-27T00:16:13.405Z,1.3
2019-01-27T00:17:13.285Z,1.3
2019-01-27T00:18:13.173Z,1.3
2019-01-27T00:19:13.485Z,1.2
2019-01-27T00:20:13.364Z,1.2
2019-01-27T00:21:13.249Z,1.2
2019-01-27T00:22:13.135Z,1.1
2019-01-27T00:23:13.050Z,1.1
2019-01-27T00:24:12.975Z,1.1
2019-01-27T00:25:12.899Z,1.1
2019-01-27T00:26:12.775Z,1
2019-01-27T00:27:12.653Z,1
2019-01-27T00:28:12.551Z,1
2019-01-27T00:29:12.853Z,0.9
2019-01-27T00:30:12.745Z,0.8
2019-01-27T00:31:12.657Z,0.9
2019-01-27T00:32:12.527Z,0.9
2019-01-27T00:34:12.176Z,1.1
2019-01-27T00:37:11.507Z,1.2
2019-01-27T00:39:11.531Z,1.3
2019-01-27T00:40:11.423Z,1.3
2019-01-27T00:41:11.305Z,1.2
2019-01-27T00:42:11.173Z,1.1
2019-01-27T00:43:11.068Z,1
2019-01-27T00:44:11.739Z,1
2019-01-27T00:45:11.627Z,1
2019-01-27T00:46:11.527Z,1
2019-01-27T00:47:11.433Z,0.9
2019-01-27T00:48:11.349Z,0.8
2019-01-27T00:49:11.671Z,0.8
2019-01-27T00:50:11.546Z,0.7
2019-01-27T00:51:11.436Z,0.7
2019-01-27T00:52:11.323Z,0.6
2019-01-27T00:53:11.197Z,0.6
2019-01-27T00:54:11.087Z,0.5
2019-01-27T00:55:10.969Z,0.5
2019-01-27T00:56:10.856Z,0.5
2019-01-27T00:57:10.746Z,0.5
2019-01-27T00:58:10.651Z,0.5
2019-01-27T00:59:10.947Z,0.5
2019-01-27T01:00:10.834Z,0.5
2019-01-27T01:01:10.725Z,0.5
2019-01-27T01:02:10.608Z,0.5
2019-01-27T01:03:10.487Z,0.5
2019-01-27T01:04:10.396Z,0.5
2019-01-27T01:05:10.285Z,0.5
2019-01-27T01:06:10.172Z,0.5
2019-01-27T01:07:10.062Z,0.5
2019-01-27T01:08:09.961Z,0.4
2019-01-27T01:09:10.258Z,0.4
2019-01-27T01:10:10.171Z,0.4
2019-01-27T01:11:10.063Z,0.4
2019-01-27T01:12:09.994Z,0.4
2019-01-27T01:13:09.879Z,0.4
2019-01-27T01:14:09.757Z,0.4
2019-01-27T01:15:09.641Z,0.4
2019-01-27T01:16:09.551Z,0.4
2019-01-27T01:17:09.464Z,0.4
2019-01-27T01:18:09.352Z,0.4
2019-01-27T01:19:09.659Z,0.4
2019-01-27T01:20:09.547Z,0.4
2019-01-27T01:21:09.433Z,0.4
2019-01-27T01:22:09.323Z,0.4
2019-01-27T01:23:09.191Z,0.4
2019-01-27T01:24:09.081Z,0.4
2019-01-27T01:25:08.973Z,0.4
2019-01-27T01:26:08.860Z,0.4
2019-01-27T01:27:08.759Z,0.3
2019-01-27T01:28:08.648Z,0.3
2019-01-27T01:29:08.952Z,0.3
2019-01-27T01:30:08.858Z,0.3
2019-01-27T01:31:08.725Z,0.2
2019-01-27T01:32:08.619Z,0.3
2019-01-27T01:33:08.505Z,0.3
2019-01-27T01:34:08.369Z,0.3
2019-01-27T01:35:08.289Z,0.2
2019-01-27T01:36:08.173Z,0.2
2019-01-27T01:37:08.070Z,0.2
2019-01-27T01:38:07.953Z,0.2
2019-01-27T01:39:08.268Z,0.2
2019-01-27T01:40:08.170Z,0.2
2019-01-27T01:41:08.037Z,0.2
2019-01-27T01:42:07.927Z,0.2
2019-01-27T01:43:07.848Z,0.2
2019-01-27T01:44:07.754Z,0.2
2019-01-27T01:45:07.646Z,0.2
2019-01-27T01:46:07.540Z,0.2
2019-01-27T01:47:07.429Z,0.2
2019-01-27T01:48:07.301Z,0.1
2019-01-27T01:49:07.595Z,0.1
2019-01-27T01:50:07.494Z,0.1
2019-01-27T01:51:07.358Z,0.2
2019-01-27T01:52:07.255Z,0.1
2019-01-27T01:53:07.142Z,0.1
2019-01-27T01:54:07.028Z,0.1
2019-01-27T01:55:06.918Z,0.1
2019-01-27T01:56:06.791Z,0.1
2019-01-27T01:57:06.680Z,0.1
2019-01-27T01:58:06.546Z,0.1
2019-01-27T01:59:06.828Z,0.1
2019-01-27T02:00:06.719Z,0.1
2019-01-27T02:01:06.586Z,0.1
2019-01-27T02:02:06.458Z,0.1
2019-01-27T02:03:06.357Z,0.1
2019-01-27T02:04:06.257Z,0.1
2019-01-27T02:05:06.156Z,0.1
2019-01-27T02:06:06.053Z,0.1
2019-01-27T02:07:05.923Z,0.1
2019-01-27T02:08:05.810Z,0.2
2019-01-27T02:09:06.112Z,0.2
2019-01-27T02:10:06.017Z,0.1
2019-01-27T02:11:05.900Z,0.2
2019-01-27T02:22:03.510Z,1
2019-01-27T02:23:03.382Z,1.1
2019-01-27T02:26:02.766Z,1.2
2019-01-27T02:29:02.505Z,1.2
2019-01-27T02:30:02.458Z,1.2
2019-01-27T02:31:02.358Z,1.2
2019-01-27T02:32:02.258Z,1.1
2019-01-27T02:33:02.178Z,1.1
2019-01-27T02:34:02.082Z,1.1
2019-01-27T02:35:02.009Z,1.1
2019-01-27T02:36:01.890Z,1
2019-01-27T02:37:01.773Z,1
2019-01-27T02:38:01.694Z,1
2019-01-27T02:39:02.049Z,0.9
2019-01-27T02:40:01.971Z,0.9
2019-01-27T02:41:01.863Z,0.9
2019-01-27T02:42:01.771Z,0.9
2019-01-27T02:43:01.663Z,0.8
2019-01-27T02:44:01.549Z,0.8
2019-01-27T02:45:01.487Z,0.8
2019-01-27T02:46:01.375Z,0.8
2019-01-27T02:47:01.260Z,0.7
2019-01-27T02:48:01.138Z,0.7
2019-01-27T02:49:01.473Z,0.7
2019-01-27T02:50:01.394Z,0.6
2019-01-27T02:51:01.321Z,0.6
2019-01-27T02:52:01.205Z,0.6
2019-01-27T02:53:01.092Z,0.6
2019-01-27T02:54:01.028Z,0.6
2019-01-27T02:55:00.944Z,0.6
2019-01-27T02:56:00.881Z,0.6
2019-01-27T02:57:00.783Z,0.6
2019-01-27T02:58:00.667Z,0.6
2019-01-27T02:59:01.000Z,0.5
2019-01-27T03:00:00.887Z,0.5
2019-01-27T03:01:00.795Z,0.5
2019-01-27T03:02:00.692Z,0.5
2019-01-27T03:03:00.626Z,0.5
2019-01-27T03:04:00.532Z,0.5
2019-01-27T03:05:00.540Z,0.5
2019-01-27T03:06:00.418Z,0.4
2019-01-27T03:07:00.308Z,0.5
2019-01-27T03:08:00.198Z,0.4
2019-01-27T03:09:00.514Z,0.3
2019-01-27T03:10:00.388Z,0.3
2019-01-27T03:11:00.330Z,0.3
2019-01-27T03:12:00.267Z,0.3
2019-01-27T03:13:00.162Z,0.3
2019-01-27T03:14:00.041Z,0.3
2019-01-27T03:14:59.924Z,0.3
2019-01-27T03:15:59.870Z,0.3
2019-01-27T03:16:59.754Z,0.3
2019-01-27T03:17:59.656Z,0.2
2019-01-27T03:19:00.017Z,0.3
2019-01-27T03:19:59.913Z,0.3
2019-01-27T03:20:59.945Z,0.2
2019-01-27T03:21:59.907Z,0.3
2019-01-27T03:22:59.777Z,0.2
2019-01-27T03:23:59.662Z,0.2
2019-01-27T03:24:59.552Z,0.2
2019-01-27T03:25:59.459Z,0.2
2019-01-27T03:26:59.362Z,0.2
2019-01-27T03:27:59.265Z,0.1
2019-01-27T03:28:59.589Z,0.1
2019-01-27T03:29:59.508Z,0.1
2019-01-27T03:30:59.399Z,0.1
2019-01-27T03:31:59.310Z,0.1
2019-01-27T03:32:59.227Z,0.1
2019-01-27T03:33:59.188Z,0.1
2019-01-27T03:34:59.073Z,0.1
2019-01-27T03:35:58.978Z,0.1
2019-01-27T03:36:58.863Z,0.1
2019-01-27T03:37:58.739Z,0
2019-01-27T03:38:59.048Z,0.1
2019-01-27T03:39:58.939Z,0.1
2019-01-27T03:40:58.831Z,0.1
2019-01-27T03:41:58.733Z,0.1
2019-01-27T03:42:58.643Z,0.1
2019-01-27T03:43:58.533Z,0.1
2019-01-27T03:44:58.398Z,0.1
2019-01-27T03:45:58.265Z,0.1
2019-01-27T03:46:58.337Z,0.1
2019-01-27T03:47:58.214Z,0.1
2019-01-27T03:48:58.521Z,0.1
2019-01-27T03:49:58.401Z,0.2
2019-01-27T03:50:58.282Z,0.2
2019-01-27T03:51:58.189Z,0.3
2019-01-27T03:52:58.109Z,0.3
2019-01-27T03:53:57.989Z,0.3
2019-01-27T03:54:57.887Z,0.2
2019-01-27T03:55:57.759Z,0.2
2019-01-27T03:56:57.638Z,0.2
2019-01-27T03:57:57.541Z,0.2
2019-01-27T03:58:57.851Z,0.2
2019-01-27T03:59:57.747Z,0.1
2019-01-27T04:00:57.610Z,0.1
2019-01-27T04:01:57.502Z,0.1
2019-01-27T04:02:57.413Z,0.1
2019-01-27T04:03:57.299Z,0.1
2019-01-27T04:04:57.191Z,0.1
2019-01-27T04:05:57.090Z,0
2019-01-27T04:06:56.992Z,0
2019-01-27T04:07:56.894Z,0
2019-01-27T04:08:57.287Z,0
2019-01-27T04:09:57.180Z,-0.1
2019-01-27T04:10:57.115Z,0
2019-01-27T04:11:56.999Z,-0.1
2019-01-27T04:12:56.908Z,-0.1
2019-01-27T04:13:56.829Z,-0.1
2019-01-27T04:14:56.708Z,-0.2
2019-01-27T04:15:56.629Z,-0.2
2019-01-27T04:16:56.503Z,-0.2
2019-01-27T04:17:56.413Z,-0.2
2019-01-27T04:18:56.731Z,-0.2
2019-01-27T04:19:56.618Z,-0.2
2019-01-27T04:20:56.507Z,-0.2
2019-01-27T04:21:56.419Z,-0.2
2019-01-27T04:22:56.319Z,-0.2
2019-01-27T04:23:56.242Z,-0.2
2019-01-27T04:24:56.133Z,-0.2
2019-01-27T04:25:56.031Z,-0.3
2019-01-27T04:26:55.909Z,-0.3
2019-01-27T04:27:55.820Z,-0.3
2019-01-27T04:28:56.143Z,-0.3
2019-01-27T04:29:56.079Z,-0.3
2019-01-27T04:48:52.069Z,0.8
2019-01-27T04:52:51.227Z,0.8
2019-01-27T04:54:50.854Z,0.9
2019-01-27T04:55:50.813Z,0.9
2019-01-27T04:56:50.703Z,0.9
2019-01-27T04:57:50.598Z,1
2019-01-27T04:59:50.757Z,1
2019-01-27T05:00:50.661Z,1
2019-01-27T05:01:50.558Z,1
2019-01-27T05:04:49.923Z,1
2019-01-27T05:05:49.803Z,1
2019-01-27T05:08:49.547Z,1
2019-01-27T05:09:49.455Z,1
2019-01-27T05:10:49.354Z,1
2019-01-27T05:11:49.223Z,0.9
2019-01-27T05:12:49.111Z,0.9
2019-01-27T05:13:49.006Z,0.8
2019-01-27T05:14:48.958Z,0.8
2019-01-27T05:15:48.860Z,0.7
2019-01-27T05:16:48.798Z,0.7
2019-01-27T05:17:48.703Z,0.6
2019-01-27T05:18:49.019Z,0.6
2019-01-27T05:19:48.950Z,0.6
2019-01-27T05:20:48.869Z,0.6
2019-01-27T05:21:48.772Z,0.5
2019-01-27T05:24:48.114Z,0.6
2019-01-27T05:27:47.510Z,0.9
2019-01-27T05:28:47.825Z,0.8
2019-01-27T05:29:47.727Z,0.8
2019-01-27T05:30:47.619Z,0.8
2019-01-27T05:31:47.665Z,0.8
2019-01-27T05:32:47.574Z,0.7
2019-01-27T05:33:47.461Z,0.6
2019-01-27T05:34:47.381Z,0.6
2019-01-27T05:35:47.259Z,0.6
2019-01-27T05:36:47.803Z,0.5
2019-01-27T05:37:47.687Z,0.5
2019-01-27T05:38:48.038Z,0.5
2019-01-27T05:39:47.937Z,0.5
2019-01-27T05:40:47.849Z,0.5
2019-01-27T05:41:47.756Z,0.4
2019-01-27T05:42:47.649Z,0.4
2019-01-27T05:43:47.541Z,0.4
2019-01-27T05:44:47.481Z,0.4
2019-01-27T05:45:47.418Z,0.4
2019-01-27T05:46:47.344Z,0.3
2019-01-27T05:47:47.255Z,0.3
2019-01-27T05:48:47.560Z,0.3
2019-01-27T05:49:47.439Z,0.3
2019-01-27T05:50:47.318Z,0.3
2019-01-27T05:51:47.225Z,0.2
2019-01-27T05:52:47.133Z,0.2
2019-01-27T05:53:47.028Z,0.2
2019-01-27T05:54:46.921Z,0.2
2019-01-27T05:55:46.821Z,0.1
2019-01-27T05:56:46.727Z,0.1
2019-01-27T05:57:46.640Z,0.1
2019-01-27T05:58:46.963Z,0.1
2019-01-27T05:59:46.904Z,0.1
2019-01-27T06:00:46.805Z,0.1
2019-01-27T06:01:46.682Z,0.1
2019-01-27T06:02:46.557Z,0.1
2019-01-27T06:03:46.462Z,0
2019-01-27T06:04:46.380Z,0.1
2019-01-27T06:05:46.294Z,0
2019-01-27T06:06:46.176Z,0
2019-01-27T06:07:46.086Z,0
2019-01-27T06:08:46.414Z,0
2019-01-27T06:09:46.312Z,0
2019-01-27T06:10:46.215Z,0
2019-01-27T06:11:46.108Z,0
2019-01-27T06:12:46.000Z,0
2019-01-27T06:13:45.880Z,0.1
2019-01-27T06:14:45.784Z,0
2019-01-27T06:15:45.667Z,0.1
2019-01-27T06:16:45.564Z,0.1
2019-01-27T06:17:45.475Z,0
2019-01-27T06:18:45.770Z,0
2019-01-27T06:19:45.649Z,0
2019-01-27T06:20:45.564Z,-0.1
2019-01-27T06:21:45.438Z,0
2019-01-27T06:22:45.329Z,0
2019-01-27T06:23:45.219Z,0
2019-01-27T06:24:45.108Z,0
2019-01-27T06:25:44.973Z,0
2019-01-27T06:26:44.874Z,-0.1
2019-01-27T06:27:44.767Z,-0.1
2019-01-27T06:28:45.078Z,-0.1
2019-01-27T06:29:44.976Z,-0.1
2019-01-27T06:30:44.858Z,-0.1
2019-01-27T06:31:44.754Z,-0.2
2019-01-27T06:32:44.632Z,-0.2
2019-01-27T06:33:44.551Z,-0.2
2019-01-27T06:34:44.440Z,-0.3
2019-01-27T06:35:44.320Z,-0.3
2019-01-27T06:36:44.239Z,-0.4
2019-01-27T06:37:44.138Z,-0.3
2019-01-27T06:38:44.420Z,-0.4
2019-01-27T06:39:44.313Z,-0.4
2019-01-27T06:58:40.301Z,0.6
2019-01-27T06:59:40.220Z,0.6
2019-01-27T07:00:40.118Z,0.5
2019-01-27T07:01:40.035Z,0.5
2019-01-27T07:02:39.937Z,0.5
2019-01-27T07:03:39.823Z,0.4
2019-01-27T07:04:40.049Z,0.4
2019-01-27T07:05:39.941Z,0.3
2019-01-27T07:06:39.832Z,0.3
2019-01-27T07:07:39.725Z,0.3
2019-01-27T07:08:40.035Z,0.3
2019-01-27T07:09:39.921Z,0.2
2019-01-27T07:10:39.825Z,0.1
2019-01-27T07:11:39.706Z,0.1
2019-01-27T07:12:39.616Z,0.1
2019-01-27T07:13:39.507Z,0
2019-01-27T07:14:39.403Z,0
2019-01-27T07:15:39.297Z,0
2019-01-27T07:16:39.183Z,0
2019-01-27T07:17:39.051Z,-0.1
2019-01-27T07:18:39.341Z,-0.1
2019-01-27T07:19:39.227Z,-0.1
2019-01-27T07:20:39.131Z,-0.1
2019-01-27T07:21:39.017Z,-0.1
2019-01-27T07:22:38.885Z,0
2019-01-27T07:23:38.773Z,0
2019-01-27T07:24:38.667Z,0
2019-01-27T07:25:38.561Z,0
2019-01-27T07:26:38.472Z,0
2019-01-27T07:27:38.403Z,0
2019-01-27T07:28:38.717Z,-0.1
2019-01-27T07:29:38.597Z,-0.1
2019-01-27T07:30:38.475Z,-0.1
2019-01-27T07:31:38.361Z,-0.1
2019-01-27T07:32:38.263Z,-0.1
2019-01-27T07:33:38.153Z,-0.1
2019-01-27T07:34:38.025Z,-0.1
2019-01-27T07:35:37.928Z,-0.1
2019-01-27T07:36:37.815Z,-0.1
2019-01-27T07:37:37.729Z,-0.2
2019-01-27T07:38:38.003Z,-0.2
2019-01-27T07:39:37.897Z,-0.1
2019-01-27T07:40:37.787Z,-0.1
2019-01-27T07:41:37.681Z,-0.1
2019-01-27T07:42:37.575Z,-0.1
2019-01-27T07:43:37.497Z,-0.1
2019-01-27T07:44:37.435Z,-0.1
2019-01-27T07:45:37.338Z,-0.1
2019-01-27T07:46:37.241Z,0
2019-01-27T07:47:37.129Z,0
2019-01-27T07:48:37.423Z,-0.1
2019-01-27T07:49:37.325Z,-0.1
2019-01-27T07:50:37.210Z,0
2019-01-27T07:51:37.126Z,0
2019-01-27T07:52:37.012Z,0
2019-01-27T07:53:36.893Z,0
2019-01-27T07:54:36.807Z,0
2019-01-27T07:55:36.698Z,0
2019-01-27T07:56:36.577Z,0
2019-01-27T07:57:36.468Z,0
2019-01-27T07:58:36.755Z,0
2019-01-27T07:59:36.631Z,0
2019-01-27T08:00:36.542Z,0
2019-01-27T08:01:36.434Z,0.1
2019-01-27T08:02:36.327Z,0.1
2019-01-27T08:03:36.213Z,0.1
2019-01-27T08:04:36.091Z,0.1
2019-01-27T08:05:35.979Z,0.2
2019-01-27T08:06:35.890Z,0.2
2019-01-27T08:07:35.784Z,0.3
2019-01-27T08:08:36.081Z,0.3
2019-01-27T08:09:35.966Z,0.2
2019-01-27T08:18:34.134Z,1.2
2019-01-27T08:19:34.026Z,1.2
2019-01-27T08:20:33.914Z,1.3
2019-01-27T08:21:33.810Z,1.5
2019-01-27T08:22:33.717Z,1.6
2019-01-27T08:23:33.600Z,1.8
2019-01-27T08:24:33.480Z,1.9
2019-01-27T08:25:33.366Z,2
2019-01-27T08:26:33.244Z,2.1
2019-01-27T08:27:33.158Z,2.1
2019-01-27T08:28:34.455Z,2.2
2019-01-27T08:29:34.332Z,2.2
2019-01-27T08:30:34.210Z,2.3
2019-01-27T08:31:34.092Z,2.3
2019-01-27T08:32:33.989Z,2.4
2019-01-27T08:33:33.946Z,2.4
2019-01-27T08:34:33.836Z,2.4
2019-01-27T08:35:33.730Z,2.4
2019-01-27T08:36:33.652Z,2.3
2019-01-27T08:37:33.539Z,2.3
2019-01-27T08:38:33.852Z,2.4
2019-01-27T08:39:33.737Z,2.4
2019-01-27T08:40:33.622Z,2.4
2019-01-27T08:41:33.503Z,2.4
2019-01-27T08:42:33.390Z,2.4
2019-01-27T08:43:33.294Z,2.4
2019-01-27T08:44:33.182Z,2.4
2019-01-27T08:45:33.056Z,2.4
2019-01-27T08:46:32.952Z,2.5
2019-01-27T08:47:32.842Z,2.5
2019-01-27T08:48:33.188Z,2.3
2019-01-27T08:49:33.974Z,2.3
2019-01-27T08:50:33.888Z,2.3
2019-01-27T08:51:33.844Z,2.4
2019-01-27T08:52:33.740Z,2.5
2019-01-27T08:53:33.642Z,2.6
2019-01-27T08:54:33.535Z,2.8
2019-01-27T08:55:33.416Z,2.9
2019-01-27T08:56:33.293Z,3
2019-01-27T08:57:33.188Z,3.1
2019-01-27T08:58:33.518Z,3.2
2019-01-27T08:59:33.396Z,3.3
2019-01-27T09:00:33.288Z,3.4
2019-01-27T09:01:33.178Z,3.4
2019-01-27T09:02:33.072Z,3.5
2019-01-27T09:03:32.978Z,3.6
2019-01-27T09:04:32.991Z,3.7
2019-01-27T09:05:32.868Z,3.8
2019-01-27T09:06:32.754Z,3.9
2019-01-27T09:07:32.650Z,4.1
2019-01-27T09:08:32.990Z,4
2019-01-27T09:09:32.882Z,4
2019-01-27T09:10:32.759Z,4.1
2019-01-27T09:11:32.653Z,4.2
2019-01-27T09:12:32.560Z,4.3
2019-01-27T09:13:32.458Z,4.3
2019-01-27T09:14:32.386Z,4.3
2019-01-27T09:15:32.259Z,4.3
2019-01-27T09:16:32.154Z,4.4
2019-01-27T09:17:32.034Z,4.5
2019-01-27T09:18:32.395Z,4.6
2019-01-27T09:19:32.287Z,4.7
2019-01-27T09:20:32.187Z,4.8
2019-01-27T09:21:32.063Z,4.8
2019-01-27T09:23:31.688Z,4.8
2019-01-27T09:24:31.590Z,4.9
2019-01-27T09:25:31.510Z,5.1
2019-01-27T09:26:31.388Z,5.2
2019-01-27T09:27:31.288Z,5.2
2019-01-27T09:28:31.614Z,5.3
2019-01-27T09:29:31.521Z,5.4
2019-01-27T09:30:31.461Z,5.5
2019-01-27T09:31:31.384Z,5.4
2019-01-27T09:32:31.261Z,5.4
2019-01-27T09:33:31.155Z,5.5
2019-01-27T09:34:31.056Z,5.5
2019-01-27T09:35:30.937Z,5.5
2019-01-27T09:36:30.827Z,5.4
2019-01-27T09:37:30.736Z,5.2
2019-01-27T09:38:31.071Z,5.2
2019-01-27T09:39:31.002Z,5.2
2019-01-27T09:40:30.898Z,5.2
2019-01-27T09:41:30.780Z,5.1
2019-01-27T09:42:30.701Z,5
2019-01-27T09:43:30.609Z,4.9
2019-01-27T09:44:30.500Z,4.9
2019-01-27T09:45:30.393Z,5
2019-01-27T09:46:30.289Z,4.9
2019-01-27T09:47:30.181Z,4.9
2019-01-27T09:48:30.558Z,4.9
2019-01-27T09:49:30.447Z,4.8
2019-01-27T09:50:30.305Z,4.9
2019-01-27T09:51:30.200Z,4.9
2019-01-27T09:52:30.091Z,4.9
2019-01-27T09:53:30.011Z,4.9
2019-01-27T09:54:29.911Z,4.7
2019-01-27T09:55:29.862Z,4.5
2019-01-27T09:56:29.743Z,4.5
2019-01-27T09:57:29.630Z,4.4
2019-01-27T09:58:29.976Z,4.3
2019-01-27T09:59:29.865Z,4.3
2019-01-27T10:00:29.747Z,4.3
2019-01-27T10:01:29.623Z,4.3
2019-01-27T10:02:35.482Z,4.3
2019-01-27T10:03:35.415Z,4.3
2019-01-27T10:04:35.321Z,4.3
2019-01-27T10:05:35.219Z,4.3
2019-01-27T10:06:35.111Z,4.2
2019-01-27T10:07:35.017Z,4.2
2019-01-27T10:08:35.359Z,4.2
2019-01-27T10:09:35.251Z,4.2
2019-01-27T10:10:35.138Z,4.2
2019-01-27T10:11:35.026Z,4.2
2019-01-27T10:12:34.927Z,4.1
2019-01-27T10:13:34.815Z,4.1
2019-01-27T10:14:34.729Z,4.1
2019-01-27T10:15:34.617Z,4.1
2019-01-27T10:16:34.587Z,4.1
2019-01-27T10:17:34.457Z,4.2
2019-01-27T10:18:34.771Z,4.1
2019-01-27T10:19:34.663Z,4.1
2019-01-27T10:20:34.583Z,4.1
2019-01-27T10:21:34.477Z,4.1
2019-01-27T10:22:34.375Z,4
2019-01-27T10:23:34.261Z,4.1
2019-01-27T10:24:34.179Z,4
2019-01-27T10:25:34.079Z,4
2019-01-27T10:26:34.006Z,4.1
2019-01-27T10:27:33.877Z,3.9
2019-01-27T10:28:34.187Z,3.9
2019-01-27T10:29:34.113Z,3.9
2019-01-27T10:30:34.015Z,3.9
2019-01-27T10:31:33.938Z,3.9
2019-01-27T10:32:33.829Z,4
2019-01-27T10:33:33.723Z,4.1
2019-01-27T10:34:33.599Z,4.1
2019-01-27T10:35:33.479Z,4.3
2019-01-27T10:36:33.391Z,4.3
2019-01-27T10:37:33.304Z,4.4
2019-01-27T10:38:33.678Z,4.4
2019-01-27T10:39:33.589Z,4.4
2019-01-27T10:40:40.980Z,4.5
2019-01-27T10:41:40.873Z,4.5
2019-01-27T10:42:40.789Z,4.6
2019-01-27T10:43:40.671Z,4.6
2019-01-27T10:44:40.565Z,4.7
2019-01-27T10:45:40.461Z,4.8
2019-01-27T10:46:40.364Z,4.8
2019-01-27T10:47:40.274Z,4.9
2019-01-27T10:48:40.559Z,5
2019-01-27T10:49:40.453Z,5.1
2019-01-27T10:50:40.369Z,5.1
2019-01-27T10:51:40.261Z,5.1
2019-01-27T10:52:40.363Z,5.1
2019-01-27T10:53:40.286Z,5.1
2019-01-27T10:54:40.186Z,5
2019-01-27T10:55:40.092Z,5
2019-01-27T10:56:39.989Z,5.1
2019-01-27T10:57:39.884Z,5.1
2019-01-27T10:58:40.179Z,5.1
2019-01-27T10:59:40.091Z,5.2
2019-01-27T11:00:39.992Z,5.3
2019-01-27T11:01:39.878Z,5.3
2019-01-27T11:02:39.765Z,5.4
2019-01-27T11:03:40.947Z,5.4
2019-01-27T11:04:40.870Z,5.5
2019-01-27T11:05:42.429Z,5.6
2019-01-27T11:06:42.329Z,5.7
2019-01-27T11:07:42.238Z,5.8
2019-01-27T11:08:42.746Z,5.9
2019-01-27T11:09:42.662Z,6
2019-01-27T11:10:42.603Z,6
2019-01-27T11:11:42.500Z,6.1
2019-01-27T11:12:42.407Z,6.1
2019-01-27T11:13:42.361Z,6.2
2019-01-27T11:14:42.237Z,6.2
2019-01-27T11:15:42.192Z,6.2
2019-01-27T11:16:42.102Z,6.4
2019-01-27T11:17:42.051Z,6.4
2019-01-27T11:18:42.402Z,6.5
2019-01-27T11:19:42.280Z,6.5
2019-01-27T11:20:42.175Z,6.5
2019-01-27T11:21:42.095Z,6.6
2019-01-27T11:22:42.006Z,6.6
2019-01-27T11:23:41.901Z,6.5
2019-01-27T11:24:41.784Z,6.6
2019-01-27T11:25:41.662Z,6.5
2019-01-27T11:26:41.560Z,6.5
2019-01-27T11:27:41.466Z,6.4
2019-01-27T11:28:42.059Z,6.4
2019-01-27T11:29:41.940Z,6.3
2019-01-27T11:30:41.834Z,6.3
2019-01-27T11:31:41.781Z,6.3
2019-01-27T11:32:41.684Z,6.4
2019-01-27T11:33:41.578Z,6.4
2019-01-27T11:34:41.495Z,6.4
2019-01-27T11:35:41.362Z,6.3
2019-01-27T11:36:41.264Z,6.3
2019-01-27T11:37:41.194Z,6.4
2019-01-27T11:38:41.524Z,6.3
2019-01-27T11:39:41.413Z,6.3
2019-01-27T11:40:41.313Z,6.3
2019-01-27T11:41:41.198Z,6.3
2019-01-27T11:42:41.094Z,6.3
2019-01-27T11:43:41.008Z,6.2
2019-01-27T11:44:40.942Z,6.2
2019-01-27T11:45:40.826Z,6.3
2019-01-27T11:46:40.730Z,6.3
2019-01-27T11:47:40.660Z,6.2
2019-01-27T11:48:41.010Z,6.1
2019-01-27T11:49:40.934Z,6.1
2019-01-27T11:50:40.834Z,6.1
2019-01-27T11:51:40.718Z,6.2
2019-01-27T11:52:40.659Z,6.2
2019-01-27T11:53:40.558Z,6.2
2019-01-27T11:54:40.445Z,6.1
2019-01-27T11:55:40.360Z,6.1
2019-01-27T11:56:40.308Z,6.1
2019-01-27T11:57:40.225Z,6
2019-01-27T11:58:40.547Z,5.9
2019-01-27T11:59:40.438Z,6
2019-01-27T12:00:40.333Z,6
2019-01-27T12:01:40.220Z,5.9
2019-01-27T12:02:47.331Z,5.9
2019-01-27T12:03:47.233Z,5.9
2019-01-27T12:04:47.134Z,6
2019-01-27T12:05:47.022Z,6
2019-01-27T12:06:46.893Z,6
2019-01-27T12:07:46.806Z,6.1
2019-01-27T12:08:47.163Z,6.1
2019-01-27T12:09:47.058Z,6.1
2019-01-27T12:10:46.936Z,6.2
2019-01-27T12:11:46.831Z,6.2
2019-01-27T12:12:46.737Z,6.2
2019-01-27T12:13:46.656Z,6.2
2019-01-27T12:14:46.557Z,6.2
2019-01-27T12:15:46.495Z,6.1
2019-01-27T12:16:46.396Z,6.2
2019-01-27T12:17:46.274Z,6.1
2019-01-27T12:18:46.626Z,6.2
2019-01-27T12:19:46.518Z,6.2
2019-01-27T12:20:46.400Z,6.2
2019-01-27T12:21:46.284Z,6.2
2019-01-27T12:22:46.202Z,6.2
2019-01-27T12:23:46.098Z,6.2
2019-01-27T12:24:45.992Z,6.2
2019-01-27T12:25:45.905Z,6.2
2019-01-27T12:26:45.780Z,6.2
2019-01-27T12:27:45.661Z,6.2
2019-01-27T12:28:46.004Z,6.1
2019-01-27T12:29:45.882Z,6.2
2019-01-27T12:30:45.774Z,6.2
2019-01-27T12:31:45.647Z,6.2
2019-01-27T12:32:45.562Z,6.2
2019-01-27T12:33:45.481Z,6.2
2019-01-27T12:34:45.370Z,6.2
2019-01-27T12:35:45.272Z,6.1
2019-01-27T12:36:45.162Z,6.1
2019-01-27T12:37:45.101Z,6.1
2019-01-27T12:38:45.410Z,6.1
2019-01-27T12:39:45.320Z,6.1
2019-01-27T12:40:45.224Z,6.1
2019-01-27T12:41:45.411Z,6.1
2019-01-27T12:42:45.303Z,6.1
2019-01-27T12:43:45.247Z,6.1
2019-01-27T12:44:45.202Z,6.2
2019-01-27T12:45:46.598Z,6.1
2019-01-27T12:46:46.483Z,6.1
2019-01-27T12:47:46.383Z,6.1
2019-01-27T12:48:46.743Z,6.1
2019-01-27T12:49:46.684Z,6.1
2019-01-27T12:50:46.562Z,6.1
2019-01-27T12:51:46.460Z,6.1
2019-01-27T12:52:46.368Z,6.1
2019-01-27T12:53:46.274Z,6.1
2019-01-27T12:54:46.170Z,6
2019-01-27T12:55:46.066Z,6
2019-01-27T12:56:45.954Z,6
2019-01-27T12:57:45.836Z,6
2019-01-27T12:58:46.155Z,6
2019-01-27T12:59:46.053Z,6
2019-01-27T13:00:45.956Z,6.1
2019-01-27T13:01:45.853Z,6.1
2019-01-27T13:02:45.741Z,6.1
2019-01-27T13:03:45.619Z,6
2019-01-27T13:04:45.541Z,6
2019-01-27T13:05:45.428Z,5.9
2019-01-27T13:06:45.317Z,5.9
2019-01-27T13:07:45.218Z,5.9
2019-01-27T13:08:45.512Z,5.9
2019-01-27T13:09:45.393Z,5.9
2019-01-27T13:10:45.308Z,5.9
2019-01-27T13:11:45.186Z,5.9
2019-01-27T13:12:45.081Z,5.9
2019-01-27T13:13:44.967Z,5.9
2019-01-27T13:14:44.867Z,5.8
2019-01-27T13:15:44.774Z,5.8
2019-01-27T13:16:44.688Z,5.8
2019-01-27T13:17:44.575Z,5.9
2019-01-27T13:18:44.956Z,5.9
2019-01-27T13:19:44.850Z,5.9
2019-01-27T13:20:44.757Z,5.9
2019-01-27T13:21:44.641Z,5.9
2019-01-27T13:22:44.537Z,5.9
2019-01-27T13:23:44.430Z,5.9
2019-01-27T13:24:44.329Z,5.8
2019-01-27T13:25:44.217Z,5.8
2019-01-27T13:26:44.113Z,5.8
2019-01-27T13:27:44.038Z,5.8
2019-01-27T13:28:44.399Z,5.8
2019-01-27T13:29:44.308Z,5.8
2019-01-27T13:30:44.220Z,5.7
2019-01-27T13:31:44.123Z,5.8
2019-01-27T13:32:44.018Z,5.8
2019-01-27T13:33:43.939Z,5.9
2019-01-27T13:34:43.819Z,5.7
2019-01-27T13:35:43.935Z,5.7
2019-01-27T13:36:43.823Z,5.7
2019-01-27T13:37:43.717Z,5.6
2019-01-27T13:38:51.442Z,5.7
2019-01-27T13:39:51.362Z,5.9
2019-01-27T13:40:51.679Z,6
2019-01-27T13:41:52.002Z,6
2019-01-27T13:42:51.902Z,6.1
2019-01-27T13:43:51.808Z,6.1
2019-01-27T13:44:51.713Z,6
2019-01-27T13:45:51.598Z,6
2019-01-27T13:46:51.491Z,6
2019-01-27T13:47:51.385Z,5.8
2019-01-27T13:48:51.716Z,5.8
2019-01-27T13:49:51.613Z,5.8
2019-01-27T13:50:51.511Z,5.9
2019-01-27T13:51:51.425Z,5.8
2019-01-27T13:52:51.316Z,5.8
2019-01-27T13:53:51.207Z,5.8
2019-01-27T13:54:51.120Z,5.8
2019-01-27T13:55:51.073Z,5.8
2019-01-27T13:56:50.959Z,5.8
2019-01-27T13:57:50.853Z,5.7
2019-01-27T13:58:51.194Z,5.7
2019-01-27T13:59:52.163Z,5.7
2019-01-27T14:00:52.053Z,5.7
2019-01-27T14:01:51.940Z,5.7
2019-01-27T14:02:51.838Z,5.7
2019-01-27T14:03:51.717Z,5.6
2019-01-27T14:04:51.621Z,5.6
2019-01-27T14:05:51.516Z,5.6
2019-01-27T14:06:51.451Z,5.5
2019-01-27T14:07:51.367Z,5.4
2019-01-27T14:08:51.717Z,5.4
2019-01-27T14:09:51.611Z,5.4
2019-01-27T14:10:51.529Z,5.4
2019-01-27T14:11:51.441Z,5.4
2019-01-27T14:12:51.341Z,5.5
2019-01-27T14:13:51.229Z,5.5
2019-01-27T14:14:51.127Z,5.5
2019-01-27T14:15:51.011Z,5.6
2019-01-27T14:16:50.949Z,5.6
2019-01-27T14:17:52.471Z,5.6
2019-01-27T14:18:53.239Z,5.6
2019-01-27T14:19:53.137Z,5.6
2019-01-27T14:20:53.041Z,5.6
2019-01-27T14:21:53.655Z,5.6
2019-01-27T14:22:53.555Z,5.6
2019-01-27T14:23:53.441Z,5.5
2019-01-27T14:24:53.341Z,5.5
2019-01-27T14:25:53.282Z,5.5
2019-01-27T14:26:53.164Z,5.5
2019-01-27T14:27:53.060Z,5.4
2019-01-27T14:28:53.410Z,5.4
2019-01-27T14:29:53.299Z,5.4
2019-01-27T14:30:53.195Z,5.3
2019-01-27T14:31:53.085Z,5.3
2019-01-27T14:32:53.015Z,5.3
2019-01-27T14:33:52.917Z,5.3
2019-01-27T14:34:52.801Z,5.2
2019-01-27T14:35:52.699Z,5.2
2019-01-27T14:36:52.580Z,5.1
2019-01-27T14:37:52.493Z,5
2019-01-27T14:38:52.820Z,5.1
2019-01-27T14:39:52.723Z,5
2019-01-27T14:40:52.601Z,4.9
2019-01-27T14:41:52.479Z,4.9
2019-01-27T14:42:52.391Z,4.9
2019-01-27T14:43:52.286Z,4.8
2019-01-27T14:44:52.187Z,4.8
2019-01-27T14:45:52.081Z,4.8
2019-01-27T14:46:51.987Z,4.8
2019-01-27T14:47:51.905Z,4.7
2019-01-27T14:48:52.210Z,4.7
2019-01-27T14:49:52.107Z,4.7
2019-01-27T14:50:51.993Z,4.7
2019-01-27T14:51:51.873Z,4.7
2019-01-27T14:52:51.787Z,4.7
2019-01-27T14:53:51.701Z,4.6
2019-01-27T14:54:51.612Z,4.6
2019-01-27T14:55:51.567Z,4.6
2019-01-27T14:56:51.450Z,4.6
2019-01-27T14:57:51.331Z,4.5
2019-01-27T14:58:52.727Z,4.4
2019-01-27T14:59:52.635Z,4.4
2019-01-27T15:00:52.542Z,4.3
2019-01-27T15:01:52.419Z,4.2
2019-01-27T15:02:52.317Z,4.1
2019-01-27T15:03:52.228Z,4
2019-01-27T15:04:52.141Z,4
2019-01-27T15:05:52.256Z,4.1
2019-01-27T15:06:52.146Z,4.2
2019-01-27T15:07:52.045Z,4.2